Time;durP1;ratioP1;P1;durP2;ratioP2;P2;SDS_P1;SDS_P2;PMS_P1;PMS_P2;Temp;Humidity;BMP_temperature;BMP_pressure;BME280_temperature;BME280_humidity;BME280_pressure;Samples;Min_cycle;Max_cycle;Signal;HPM_P1;HPM_P2
2022/07/29 00:04:49;;;;;;;8.18;4.13;;;;;;;21.13;86.01;100060.44;20907640;28;20049;-76
2022/07/29 00:14:51;;;;;;;6.05;4.18;;;;;;;21.05;87.53;100052.94;20906395;28;20079;-76
2022/07/29 00:24:52;;;;;;;5.70;3.75;;;;;;;20.90;88.74;100049.44;20906427;28;20063;-77
2022/07/29 00:45:14;;;;;;;7.65;4.57;;;;;;;20.36;95.08;100043.09;20904997;28;20045;-75
2022/07/29 00:55:15;;;;;;;7.60;4.55;;;;;;;19.98;98.67;100047.16;20902940;28;20515;-75
2022/07/29 01:05:17;;;;;;;8.13;4.53;;;;;;;19.78;98.52;100039.50;20902455;28;20056;-75
2022/07/29 01:15:18;;;;;;;11.25;4.38;;;;;;;19.58;96.73;100035.34;20902465;28;20063;-75
2022/07/29 01:25:19;;;;;;;6.97;3.85;;;;;;;19.57;96.71;100040.75;20900336;28;20540;-74
2022/07/29 01:35:21;;;;;;;10.30;4.47;;;;;;;19.29;100.00;100037.03;20900901;28;20132;-76
2022/07/29 01:45:22;;;;;;;7.38;4.30;;;;;;;19.15;99.70;100036.97;20901130;28;20049;-75
2022/07/29 01:55:24;;;;;;;8.45;4.78;;;;;;;19.02;98.46;100036.84;20900894;28;20048;-76
2022/07/29 02:05:25;;;;;;;11.52;4.47;;;;;;;19.14;95.39;100030.81;20900251;28;20505;-75
2022/07/29 02:15:26;;;;;;;7.07;4.28;;;;;;;19.03;96.88;100043.00;20899262;28;20057;-75
2022/07/29 02:25:28;;;;;;;8.63;4.00;;;;;;;18.83;94.92;100044.97;20906592;28;20041;-76
2022/07/29 02:35:38;;;;;;;7.57;4.38;;;;;;;18.68;97.67;100046.66;20914744;28;20179;-74
2022/07/29 02:45:39;;;;;;;8.95;4.35;;;;;;;18.40;95.88;100041.13;20914058;28;20057;-75
2022/07/29 02:55:41;;;;;;;7.70;3.80;;;;;;;18.27;94.52;100043.56;20912954;28;20497;-75
2022/07/29 03:05:42;;;;;;;8.07;3.95;;;;;;;18.14;94.29;100038.03;20911878;28;20065;-74
2022/07/29 03:15:43;;;;;;;6.85;3.80;;;;;;;18.09;94.11;100045.38;20911421;28;20056;-75
2022/07/29 03:25:45;;;;;;;6.75;3.60;;;;;;;18.08;93.00;100046.31;20911317;28;20489;-75
2022/07/29 03:35:46;;;;;;;8.93;3.50;;;;;;;18.01;93.28;100052.00;20907900;28;20057;-75
2022/07/29 03:45:48;;;;;;;13.65;4.43;;;;;;;17.94;96.63;100054.13;20907853;28;20497;-76
2022/07/29 03:55:49;;;;;;;11.05;4.15;;;;;;;17.78;98.18;100058.50;20907058;28;20094;-76
2022/07/29 04:05:50;;;;;;;7.65;3.60;;;;;;;17.60;94.43;100063.75;20907260;28;20413;-76
2022/07/29 04:15:52;;;;;;;7.05;3.35;;;;;;;17.51;92.28;100064.22;20906732;28;20053;-75
2022/07/29 04:25:53;;;;;;;8.75;3.00;;;;;;;17.51;90.53;100073.94;20905606;28;20080;-76
2022/07/29 04:35:55;;;;;;;8.80;3.00;;;;;;;17.63;85.19;100073.31;20919358;22;20049;-69
2022/07/29 04:45:56;;;;;;;7.93;3.20;;;;;;;17.74;85.15;100080.78;20905166;28;20099;-70
2022/07/29 04:55:58;;;;;;;7.95;2.92;;;;;;;17.92;81.81;100079.84;20904772;28;20509;-69
2022/07/29 05:05:59;;;;;;;6.72;2.75;;;;;;;18.23;78.57;100094.16;20903385;28;20141;-70
2022/07/29 05:16:00;;;;;;;7.32;2.70;;;;;;;18.63;73.01;100088.44;20863854;28;20428;-70
2022/07/29 05:26:02;;;;;;;10.05;3.10;;;;;;;18.88;70.08;100092.47;20820495;28;20520;-70
2022/07/29 05:36:05;;;;;;;6.05;2.30;;;;;;;19.08;68.69;100100.16;20819436;28;20088;-71
2022/07/29 05:46:06;;;;;;;8.00;2.38;;;;;;;19.18;69.79;100109.31;20819408;28;20140;-70
2022/07/29 05:56:09;;;;;;;9.07;2.53;;;;;;;19.38;69.22;100123.28;20818717;28;20057;-70
2022/07/29 06:06:10;;;;;;;7.95;2.30;;;;;;;19.66;68.65;100123.44;20834555;28;20050;-71
2022/07/29 06:16:11;;;;;;;8.10;2.58;;;;;;;20.06;69.55;100142.38;20834417;28;20053;-70
2022/07/29 06:26:16;;;;;;;6.43;3.15;;;;;;;20.46;70.49;100147.97;20833776;28;20053;-68
2022/07/29 06:36:17;;;;;;;6.22;2.88;;;;;;;21.18;70.50;100141.72;20850507;28;20041;-68
2022/07/29 06:46:19;;;;;;;7.75;3.17;;;;;;;21.37;69.84;100144.09;20871106;28;20044;-68
2022/07/29 06:56:20;;;;;;;8.15;3.30;;;;;;;21.61;69.61;100164.75;20889999;28;20056;-68
2022/07/29 07:06:22;;;;;;;7.10;3.67;;;;;;;21.61;77.55;100162.94;20899943;28;20045;-68
2022/07/29 07:16:23;;;;;;;7.63;2.67;;;;;;;22.30;69.33;100162.84;20899012;28;20044;-68
2022/07/29 07:26:25;;;;;;;7.80;3.30;;;;;;;22.95;65.07;100152.97;20886123;28;20060;-68
2022/07/29 07:36:26;;;;;;;8.48;3.50;;;;;;;22.93;66.45;100165.53;20866254;28;20087;-68
2022/07/29 07:46:27;;;;;;;6.85;3.85;;;;;;;23.51;60.46;100165.84;20874670;28;20053;-68
2022/07/29 07:56:29;;;;;;;9.73;4.07;;;;;;;24.17;60.26;100156.44;20840302;28;20064;-68
2022/07/29 08:06:36;;;;;;;7.68;3.72;;;;;;;23.71;61.78;100167.91;20825911;28;20468;-69
2022/07/29 08:16:38;;;;;;;12.20;4.03;;;;;;;23.76;61.35;100160.44;20824598;28;20520;-68
2022/07/29 08:26:39;;;;;;;7.35;3.17;;;;;;;24.36;56.87;100173.78;20823040;28;20056;-69
2022/07/29 08:36:40;;;;;;;6.55;3.17;;;;;;;24.71;53.33;100163.88;20823054;28;20049;-69
2022/07/29 08:46:42;;;;;;;7.45;3.35;;;;;;;24.95;53.13;100170.97;20823005;28;20050;-69
2022/07/29 08:56:43;;;;;;;6.03;2.78;;;;;;;25.35;50.95;100178.53;20822229;28;20056;-69
2022/07/29 09:06:45;;;;;;;7.15;2.85;;;;;;;25.62;50.03;100176.25;20820734;28;20052;-70
2022/07/29 09:16:46;;;;;;;6.43;2.60;;;;;;;25.58;48.67;100174.81;20820337;28;20148;-69
2022/07/29 09:26:54;;;;;;;5.63;2.58;;;;;;;26.02;46.98;100173.84;20820254;28;20057;-69
2022/07/29 09:36:56;;;;;;;6.80;2.88;;;;;;;25.37;48.01;100166.69;20858039;28;20374;-69
2022/07/29 09:46:58;;;;;;;6.20;2.92;;;;;;;26.18;45.70;100160.00;20861896;28;20045;-69
2022/07/29 09:57:00;;;;;;;7.57;2.72;;;;;;;26.30;45.48;100158.97;20864987;28;20095;-69
2022/07/29 10:07:01;;;;;;;8.70;3.55;;;;;;;25.65;46.20;100167.97;20841655;28;20057;-68
2022/07/29 10:17:05;;;;;;;5.97;2.90;;;;;;;25.84;47.03;100165.50;20817356;28;20053;-69
2022/07/29 10:27:06;;;;;;;7.95;3.00;;;;;;;26.63;45.52;100140.09;20817286;28;20053;-69
2022/07/29 10:37:08;;;;;;;7.57;2.90;;;;;;;26.86;43.42;100137.09;20816837;28;20045;-68
2022/07/29 10:47:10;;;;;;;6.47;2.83;;;;;;;27.21;43.23;100122.38;20824845;28;20053;-68
2022/07/29 10:57:12;;;;;;;8.10;4.50;;;;;;;26.86;41.38;100104.00;20830429;28;20053;-69
2022/07/29 11:07:16;;;;;;;8.77;2.97;;;;;;;27.17;40.80;100114.75;20830470;28;20049;-68
2022/07/29 11:17:17;;;;;;;6.28;2.85;;;;;;;28.62;38.39;100101.28;20830130;28;20486;-69
2022/07/29 11:27:21;;;;;;;8.93;3.07;;;;;;;28.67;36.33;100109.75;20829111;28;20614;-69
2022/07/29 11:37:23;;;;;;;6.63;3.03;;;;;;;28.48;36.91;100104.44;20827540;28;20061;-68
2022/07/29 11:47:28;;;;;;;8.05;2.83;;;;;;;28.71;36.07;100097.69;20827509;28;20049;-69
2022/07/29 11:57:38;;;;;;;8.85;2.80;;;;;;;28.36;36.97;100096.56;20825724;28;20083;-68
2022/07/29 12:07:41;;;;;;;6.97;2.50;;;;;;;28.03;36.94;100105.09;20825375;28;20049;-69
2022/07/29 12:17:47;;;;;;;4.90;2.35;;;;;;;28.55;36.16;100110.94;20824461;28;20049;-68
2022/07/29 12:27:49;;;;;;;4.75;2.10;;;;;;;28.43;34.47;100101.34;20823688;28;20060;-68
2022/07/29 12:37:51;;;;;;;5.15;2.15;;;;;;;28.91;32.69;100089.53;20822292;28;20049;-68
2022/07/29 12:47:55;;;;;;;5.97;2.35;;;;;;;28.96;33.36;100084.56;20821628;28;20512;-68
2022/07/29 12:57:57;;;;;;;4.93;2.15;;;;;;;29.19;33.00;100085.00;20822527;28;20053;-68
2022/07/29 13:07:58;;;;;;;6.78;1.80;;;;;;;29.09;31.65;100091.31;20819416;28;20107;-67
2022/07/29 13:18:00;;;;;;;4.88;1.55;;;;;;;29.19;32.30;100103.88;20820410;28;20053;-70
2022/07/29 13:28:02;;;;;;;4.70;1.75;;;;;;;29.56;32.04;100106.47;20820095;28;20049;-72
2022/07/29 13:38:03;;;;;;;6.60;1.75;;;;;;;29.08;33.31;100113.00;20819021;28;20456;-74
2022/07/29 13:48:06;;;;;;;4.43;1.95;;;;;;;28.82;32.04;100108.28;20818120;28;20060;-71
2022/07/29 13:58:07;;;;;;;4.73;1.67;;;;;;;28.71;30.85;100100.41;20895876;28;20070;-70
2022/07/29 14:08:08;;;;;;;7.40;2.30;;;;;;;28.72;31.60;100090.47;20899758;28;20056;-71
2022/07/29 14:18:10;;;;;;;7.68;2.08;;;;;;;28.96;31.47;100100.75;20902373;28;20049;-71
2022/07/29 14:28:11;;;;;;;4.75;1.90;;;;;;;28.76;30.25;100081.94;20915728;28;20455;-72
2022/07/29 14:38:14;;;;;;;6.65;2.10;;;;;;;29.16;30.17;100082.59;20914693;28;20127;-68
2022/07/29 14:48:16;;;;;;;4.40;1.42;;;;;;;29.38;28.77;100076.78;20914612;28;20080;-68
2022/07/29 14:58:18;;;;;;;5.82;1.60;;;;;;;29.17;28.31;100077.03;20912731;28;20049;-68
2022/07/29 15:08:19;;;;;;;3.90;1.33;;;;;;;29.58;28.09;100077.50;20912811;28;20048;-68
2022/07/29 15:18:20;;;;;;;7.72;1.83;;;;;;;29.66;27.29;100069.50;20909992;28;20057;-69
2022/07/29 15:28:26;;;;;;;6.28;1.70;;;;;;;29.43;27.00;100063.69;20910924;28;20052;-68
2022/07/29 15:38:27;;;;;;;4.63;1.40;;;;;;;29.31;27.61;100071.13;20908795;28;20463;-68
2022/07/29 15:48:29;;;;;;;3.28;1.30;;;;;;;29.24;26.53;100077.31;20909357;28;20490;-68
2022/07/29 15:58:30;;;;;;;2.92;1.20;;;;;;;28.77;27.75;100066.63;20909440;28;20490;-68
2022/07/29 16:08:32;;;;;;;4.55;1.30;;;;;;;29.45;26.61;100055.44;20862361;28;20050;-69
2022/07/29 16:18:33;;;;;;;4.00;1.17;;;;;;;29.96;26.28;100043.09;20887461;28;20513;-68
2022/07/29 16:28:35;;;;;;;3.70;1.35;;;;;;;30.58;25.42;100038.41;20816766;28;20053;-69
2022/07/29 16:38:37;;;;;;;3.70;1.35;;;;;;;30.25;24.34;100030.13;20829935;28;20054;-68
2022/07/29 16:48:47;;;;;;;3.60;1.15;;;;;;;30.32;21.57;100025.78;20812474;28;20057;-67
2022/07/29 16:58:48;;;;;;;4.03;1.20;;;;;;;30.15;21.02;100021.31;20812230;28;20049;-69
2022/07/29 17:08:50;;;;;;;2.88;1.20;;;;;;;30.29;21.55;100034.22;20811998;28;20046;-68
2022/07/29 17:18:51;;;;;;;3.08;1.38;;;;;;;29.84;22.41;100043.31;20850740;28;20064;-69
2022/07/29 17:28:53;;;;;;;4.28;1.50;;;;;;;29.82;23.03;100042.63;20810881;28;20679;-68
2022/07/29 17:38:54;;;;;;;3.63;1.25;;;;;;;29.57;24.48;100048.84;20809286;28;20057;-69
2022/07/29 17:48:55;;;;;;;7.15;1.38;;;;;;;29.32;24.43;100062.06;20811149;28;20061;-68
2022/07/29 17:59:00;;;;;;;3.85;1.42;;;;;;;29.23;26.01;100057.59;20821451;28;20084;-68
2022/07/29 18:09:01;;;;;;;3.03;1.20;;;;;;;28.98;26.25;100071.78;20826429;28;20049;-68
2022/07/29 18:19:02;;;;;;;4.82;1.27;;;;;;;28.56;27.69;100081.19;20904979;28;20437;-69
2022/07/29 18:29:04;;;;;;;3.92;1.50;;;;;;;28.19;28.78;100091.88;20907520;28;20063;-69
2022/07/29 18:39:09;;;;;;;5.50;1.73;;;;;;;27.54;31.35;100098.81;20906855;28;20052;-68
2022/07/29 18:49:15;;;;;;;4.95;1.50;;;;;;;27.00;32.75;100103.63;20906296;28;20134;-69
2022/07/29 18:59:19;;;;;;;3.40;1.80;;;;;;;26.64;34.46;100107.75;20905048;28;20049;-69
2022/07/29 19:09:20;;;;;;;;;;;;;;;26.22;37.90;100133.75;20904471;28;20399;-69
2022/07/29 19:19:21;;;;;;;5.07;2.05;;;;;;;25.96;39.31;100134.09;20824545;28;19925;-68
2022/07/29 19:29:24;;;;;;;7.22;1.90;;;;;;;25.80;39.75;100141.75;20819171;28;20048;-68
2022/07/29 19:39:25;;;;;;;3.00;1.63;;;;;;;25.74;41.69;100153.81;20830790;28;20094;-68
2022/07/29 19:49:38;;;;;;;4.03;1.83;;;;;;;25.58;44.11;100170.31;20901387;28;20493;-68
2022/07/29 19:59:39;;;;;;;5.18;1.98;;;;;;;25.43;45.28;100170.69;20900431;28;20045;-68
2022/07/29 20:09:40;;;;;;;8.75;2.20;;;;;;;24.86;46.78;100207.34;20897232;28;20095;-68
2022/07/29 20:19:42;;;;;;;5.10;2.03;;;;;;;24.58;46.04;100214.03;20816349;28;20121;-67
2022/07/29 20:29:43;;;;;;;4.75;2.10;;;;;;;24.57;44.69;100220.31;20815745;28;20052;-68
2022/07/29 20:39:48;;;;;;;6.40;2.30;;;;;;;24.44;45.71;100230.28;20814301;28;20068;-67
2022/07/29 20:49:49;;;;;;;7.07;3.47;;;;;;;24.19;52.13;100226.72;20813368;28;20486;-68
2022/07/29 20:59:51;;;;;;;5.65;3.05;;;;;;;23.95;54.70;100241.94;20813191;28;20057;-67
2022/07/29 21:09:52;;;;;;;6.00;3.30;;;;;;;23.91;54.57;100253.84;20815516;28;20505;-68
2022/07/29 21:19:54;;;;;;;6.78;3.25;;;;;;;23.68;54.97;100259.06;20891694;28;20049;-68
2022/07/29 21:29:55;;;;;;;7.18;3.42;;;;;;;23.34;56.00;100265.94;20891689;28;20049;-67
2022/07/29 21:40:00;;;;;;;4.72;2.80;;;;;;;23.09;57.07;100282.81;20891813;28;20803;-68
2022/07/29 21:50:01;;;;;;;9.82;3.55;;;;;;;22.84;58.17;100286.28;20891079;28;20049;-68
2022/07/29 22:00:03;;;;;;;6.78;3.58;;;;;;;22.79;58.30;100307.97;20892977;28;20063;-69
2022/07/29 22:10:04;;;;;;;6.63;3.20;;;;;;;22.63;59.25;100328.66;20898890;28;20041;-70
2022/07/29 22:20:05;;;;;;;9.00;3.33;;;;;;;22.65;59.81;100332.06;20899990;28;20057;-69
2022/07/29 22:30:07;;;;;;;6.65;3.33;;;;;;;22.44;61.33;100339.69;20899218;28;20048;-68
2022/07/29 22:40:08;;;;;;;8.10;3.92;;;;;;;22.28;62.56;100339.00;20948333;22;20048;-81
2022/07/29 22:50:12;;;;;;;6.13;3.67;;;;;;;22.05;64.84;100364.44;20937809;28;20136;-80
2022/07/29 23:00:15;;;;;;;6.10;3.85;;;;;;;21.83;66.31;100382.75;20954299;28;20417;-80
2022/07/29 23:10:16;;;;;;;5.65;3.60;;;;;;;21.47;70.41;100376.94;20956635;28;20085;-81
2022/07/29 23:20:20;;;;;;;6.43;3.47;;;;;;;21.24;71.84;100388.97;20937983;28;20088;-81
2022/07/29 23:30:22;;;;;;;6.90;3.72;;;;;;;21.13;73.21;100399.41;20923467;28;20041;-81
2022/07/29 23:40:25;;;;;;;7.18;3.85;;;;;;;20.95;75.78;100403.16;20921942;28;20570;-80
2022/07/29 23:50:26;;;;;;;8.73;3.92;;;;;;;20.88;76.40;100412.44;20916316;28;20049;-81
